Hudsonville, Indiana
Current Conditions -  °F | °C
As of 1:15 PM on Thursday 30 Oct 2014 (Local Time) from KDCY Reporting Station
Clear Clear  
Wind Chill: 52°   Ceiling: Unl
Heat Index: 52°   Visibility: 10mi
Dew Point: 35°   Wind: 6mph
Humidity: 53%   Direction: 200°SSW
Pressure: 30.12"   Gusts: NA
Location:  38.6251°N, 87.0452°W
Report Text: KDCY 301815Z AUTO 20005KT 10SM CLR 11/02 A3012 RMK AO2 T01100016
Loading
Personal Weather Stations






























Interactive Weather Map
Tropical Storm Tracking
New forecast layout! Learn more

10-Day Weather Forecast

Advertisements
Track Severe Weather on mobile